sensor_id;sensor_type;location;lat;lon;timestamp;P1;durP1;ratioP1;P2;durP2;ratioP2
8044;SDS011;4065;48.754;9.982;2023-04-03T00:01:29;9.38;;;8.07;;
8044;SDS011;4065;48.754;9.982;2023-04-03T00:04:51;8.93;;;8.07;;
8044;SDS011;4065;48.754;9.982;2023-04-03T00:08:13;11.07;;;7.88;;
8044;SDS011;4065;48.754;9.982;2023-04-03T00:11:35;9.07;;;8.25;;
8044;SDS011;4065;48.754;9.982;2023-04-03T00:14:57;9.43;;;8.52;;
8044;SDS011;4065;48.754;9.982;2023-04-03T00:18:21;8.75;;;7.88;;
8044;SDS011;4065;48.754;9.982;2023-04-03T00:21:43;8.90;;;7.97;;
8044;SDS011;4065;48.754;9.982;2023-04-03T00:25:06;10.90;;;9.60;;
8044;SDS011;4065;48.754;9.982;2023-04-03T00:28:28;8.40;;;7.70;;
8044;SDS011;4065;48.754;9.982;2023-04-03T00:31:50;8.93;;;7.68;;
8044;SDS011;4065;48.754;9.982;2023-04-03T00:35:14;9.07;;;8.27;;
8044;SDS011;4065;48.754;9.982;2023-04-03T00:38:36;8.80;;;7.93;;
8044;SDS011;4065;48.754;9.982;2023-04-03T00:41:58;8.32;;;7.50;;
8044;SDS011;4065;48.754;9.982;2023-04-03T00:45:29;8.88;;;8.00;;
8044;SDS011;4065;48.754;9.982;2023-04-03T00:48:53;8.95;;;8.05;;
8044;SDS011;4065;48.754;9.982;2023-04-03T00:52:17;9.25;;;8.10;;
8044;SDS011;4065;48.754;9.982;2023-04-03T00:55:42;8.82;;;7.60;;
8044;SDS011;4065;48.754;9.982;2023-04-03T00:59:05;8.63;;;7.78;;
8044;SDS011;4065;48.754;9.982;2023-04-03T01:02:29;9.02;;;8.15;;
8044;SDS011;4065;48.754;9.982;2023-04-03T01:05:51;7.43;;;6.78;;
8044;SDS011;4065;48.754;9.982;2023-04-03T01:09:14;7.93;;;7.13;;
8044;SDS011;4065;48.754;9.982;2023-04-03T01:12:37;7.90;;;7.20;;
8044;SDS011;4065;48.754;9.982;2023-04-03T01:16:00;8.63;;;7.07;;
8044;SDS011;4065;48.754;9.982;2023-04-03T01:19:23;8.20;;;7.47;;
8044;SDS011;4065;48.754;9.982;2023-04-03T01:22:48;8.35;;;7.55;;
8044;SDS011;4065;48.754;9.982;2023-04-03T01:26:15;7.80;;;7.10;;
8044;SDS011;4065;48.754;9.982;2023-04-03T01:29:37;11.60;;;7.72;;
8044;SDS011;4065;48.754;9.982;2023-04-03T01:33:01;8.43;;;7.47;;
8044;SDS011;4065;48.754;9.982;2023-04-03T01:36:23;8.13;;;7.32;;
8044;SDS011;4065;48.754;9.982;2023-04-03T01:39:46;8.18;;;7.47;;
8044;SDS011;4065;48.754;9.982;2023-04-03T01:43:08;8.55;;;7.72;;
8044;SDS011;4065;48.754;9.982;2023-04-03T01:46:31;7.97;;;7.20;;
8044;SDS011;4065;48.754;9.982;2023-04-03T01:49:54;7.95;;;6.53;;
8044;SDS011;4065;48.754;9.982;2023-04-03T01:53:16;7.90;;;7.10;;
8044;SDS011;4065;48.754;9.982;2023-04-03T01:56:38;10.50;;;7.30;;
8044;SDS011;4065;48.754;9.982;2023-04-03T02:00:00;7.95;;;6.78;;
8044;SDS011;4065;48.754;9.982;2023-04-03T02:03:23;8.27;;;7.13;;
8044;SDS011;4065;48.754;9.982;2023-04-03T02:06:46;8.30;;;6.97;;
8044;SDS011;4065;48.754;9.982;2023-04-03T02:10:09;12.18;;;7.30;;
8044;SDS011;4065;48.754;9.982;2023-04-03T02:13:31;7.68;;;6.95;;
8044;SDS011;4065;48.754;9.982;2023-04-03T02:16:53;7.78;;;7.07;;
8044;SDS011;4065;48.754;9.982;2023-04-03T02:20:15;7.80;;;7.10;;
8044;SDS011;4065;48.754;9.982;2023-04-03T02:23:38;9.43;;;7.60;;
8044;SDS011;4065;48.754;9.982;2023-04-03T02:27:01;9.18;;;8.23;;
8044;SDS011;4065;48.754;9.982;2023-04-03T02:30:23;7.72;;;7.03;;
8044;SDS011;4065;48.754;9.982;2023-04-03T02:33:45;7.82;;;7.03;;
8044;SDS011;4065;48.754;9.982;2023-04-03T02:37:07;7.82;;;7.03;;
8044;SDS011;4065;48.754;9.982;2023-04-03T02:40:31;9.20;;;7.70;;
8044;SDS011;4065;48.754;9.982;2023-04-03T02:43:53;7.93;;;7.22;;
8044;SDS011;4065;48.754;9.982;2023-04-03T02:47:14;8.75;;;7.15;;
8044;SDS011;4065;48.754;9.982;2023-04-03T02:50:36;8.45;;;7.55;;
8044;SDS011;4065;48.754;9.982;2023-04-03T02:53:59;7.93;;;7.22;;
8044;SDS011;4065;48.754;9.982;2023-04-03T02:57:22;7.28;;;6.68;;
8044;SDS011;4065;48.754;9.982;2023-04-03T03:00:44;7.30;;;6.60;;
8044;SDS011;4065;48.754;9.982;2023-04-03T03:04:06;6.53;;;6.00;;
8044;SDS011;4065;48.754;9.982;2023-04-03T03:07:28;6.70;;;6.10;;
8044;SDS011;4065;48.754;9.982;2023-04-03T03:10:50;6.40;;;5.80;;
8044;SDS011;4065;48.754;9.982;2023-04-03T03:14:16;6.43;;;5.82;;
8044;SDS011;4065;48.754;9.982;2023-04-03T03:17:38;6.00;;;5.50;;
8044;SDS011;4065;48.754;9.982;2023-04-03T03:21:01;6.25;;;5.63;;
8044;SDS011;4065;48.754;9.982;2023-04-03T03:24:24;5.57;;;5.07;;
8044;SDS011;4065;48.754;9.982;2023-04-03T03:27:46;6.75;;;6.10;;
8044;SDS011;4065;48.754;9.982;2023-04-03T03:31:09;5.88;;;5.32;;
8044;SDS011;4065;48.754;9.982;2023-04-03T03:34:32;7.07;;;6.30;;
8044;SDS011;4065;48.754;9.982;2023-04-03T03:37:55;6.10;;;5.50;;
8044;SDS011;4065;48.754;9.982;2023-04-03T03:41:16;6.93;;;6.32;;
8044;SDS011;4065;48.754;9.982;2023-04-03T03:44:38;7.75;;;5.70;;
8044;SDS011;4065;48.754;9.982;2023-04-03T03:48:02;6.15;;;5.65;;
8044;SDS011;4065;48.754;9.982;2023-04-03T03:51:24;5.93;;;5.38;;
8044;SDS011;4065;48.754;9.982;2023-04-03T03:54:46;5.90;;;5.40;;
8044;SDS011;4065;48.754;9.982;2023-04-03T03:58:08;5.78;;;5.28;;
8044;SDS011;4065;48.754;9.982;2023-04-03T04:01:30;7.50;;;5.57;;
8044;SDS011;4065;48.754;9.982;2023-04-03T04:04:54;5.28;;;4.88;;
8044;SDS011;4065;48.754;9.982;2023-04-03T04:08:16;6.07;;;5.53;;
8044;SDS011;4065;48.754;9.982;2023-04-03T04:11:38;6.13;;;5.55;;
8044;SDS011;4065;48.754;9.982;2023-04-03T04:15:01;6.07;;;5.60;;
8044;SDS011;4065;48.754;9.982;2023-04-03T04:18:22;5.63;;;5.10;;
8044;SDS011;4065;48.754;9.982;2023-04-03T04:21:46;6.30;;;5.70;;
8044;SDS011;4065;48.754;9.982;2023-04-03T04:25:08;5.60;;;5.10;;
8044;SDS011;4065;48.754;9.982;2023-04-03T04:28:30;5.88;;;5.43;;
8044;SDS011;4065;48.754;9.982;2023-04-03T04:31:52;6.03;;;5.43;;
8044;SDS011;4065;48.754;9.982;2023-04-03T04:35:15;5.90;;;5.20;;
8044;SDS011;4065;48.754;9.982;2023-04-03T04:38:40;6.35;;;5.82;;
8044;SDS011;4065;48.754;9.982;2023-04-03T04:42:04;6.22;;;5.72;;
8044;SDS011;4065;48.754;9.982;2023-04-03T04:45:30;9.52;;;6.00;;
8044;SDS011;4065;48.754;9.982;2023-04-03T04:48:53;5.78;;;5.28;;
8044;SDS011;4065;48.754;9.982;2023-04-03T04:52:17;6.85;;;6.25;;
8044;SDS011;4065;48.754;9.982;2023-04-03T04:55:43;6.22;;;5.70;;
8044;SDS011;4065;48.754;9.982;2023-04-03T04:59:09;6.85;;;5.95;;
8044;SDS011;4065;48.754;9.982;2023-04-03T05:02:34;7.15;;;6.45;;
8044;SDS011;4065;48.754;9.982;2023-04-03T05:06:00;7.70;;;7.00;;
8044;SDS011;4065;48.754;9.982;2023-04-03T05:09:26;8.45;;;7.20;;
8044;SDS011;4065;48.754;9.982;2023-04-03T05:12:51;7.82;;;7.22;;
8044;SDS011;4065;48.754;9.982;2023-04-03T05:16:15;7.43;;;6.82;;
8044;SDS011;4065;48.754;9.982;2023-04-03T05:19:39;8.30;;;7.53;;
8044;SDS011;4065;48.754;9.982;2023-04-03T05:23:02;8.65;;;7.85;;
8044;SDS011;4065;48.754;9.982;2023-04-03T05:26:27;8.52;;;7.43;;
8044;SDS011;4065;48.754;9.982;2023-04-03T05:29:54;7.93;;;7.10;;
8044;SDS011;4065;48.754;9.982;2023-04-03T05:33:19;7.43;;;6.72;;
8044;SDS011;4065;48.754;9.982;2023-04-03T05:36:43;6.93;;;6.22;;
8044;SDS011;4065;48.754;9.982;2023-04-03T05:40:09;9.75;;;6.38;;
8044;SDS011;4065;48.754;9.982;2023-04-03T05:43:34;6.20;;;5.70;;
8044;SDS011;4065;48.754;9.982;2023-04-03T05:47:02;7.65;;;6.47;;
8044;SDS011;4065;48.754;9.982;2023-04-03T05:50:31;7.32;;;6.63;;
8044;SDS011;4065;48.754;9.982;2023-04-03T05:53:56;10.32;;;7.10;;
8044;SDS011;4065;48.754;9.982;2023-04-03T05:57:25;7.45;;;6.72;;
8044;SDS011;4065;48.754;9.982;2023-04-03T06:00:51;8.32;;;7.53;;
8044;SDS011;4065;48.754;9.982;2023-04-03T06:04:18;11.93;;;6.97;;
8044;SDS011;4065;48.754;9.982;2023-04-03T06:07:45;9.18;;;7.75;;
8044;SDS011;4065;48.754;9.982;2023-04-03T06:11:10;11.65;;;9.15;;
8044;SDS011;4065;48.754;9.982;2023-04-03T06:14:45;8.55;;;7.10;;
8044;SDS011;4065;48.754;9.982;2023-04-03T06:18:14;7.45;;;6.75;;
8044;SDS011;4065;48.754;9.982;2023-04-03T06:21:41;8.82;;;7.47;;
8044;SDS011;4065;48.754;9.982;2023-04-03T06:25:06;6.97;;;6.38;;
8044;SDS011;4065;48.754;9.982;2023-04-03T06:28:36;6.90;;;6.30;;
8044;SDS011;4065;48.754;9.982;2023-04-03T06:32:02;10.10;;;6.65;;
8044;SDS011;4065;48.754;9.982;2023-04-03T06:35:27;6.85;;;6.15;;
8044;SDS011;4065;48.754;9.982;2023-04-03T06:38:53;8.18;;;6.35;;
8044;SDS011;4065;48.754;9.982;2023-04-03T06:42:17;7.10;;;6.40;;
8044;SDS011;4065;48.754;9.982;2023-04-03T06:45:40;8.77;;;6.32;;
8044;SDS011;4065;48.754;9.982;2023-04-03T06:49:06;8.80;;;7.05;;
8044;SDS011;4065;48.754;9.982;2023-04-03T06:52:30;9.15;;;6.70;;
8044;SDS011;4065;48.754;9.982;2023-04-03T06:55:57;6.90;;;6.20;;
8044;SDS011;4065;48.754;9.982;2023-04-03T06:59:21;10.52;;;6.40;;
8044;SDS011;4065;48.754;9.982;2023-04-03T07:02:51;13.55;;;7.80;;
8044;SDS011;4065;48.754;9.982;2023-04-03T07:06:15;9.10;;;6.43;;
8044;SDS011;4065;48.754;9.982;2023-04-03T07:09:45;8.63;;;6.47;;
8044;SDS011;4065;48.754;9.982;2023-04-03T07:13:12;6.68;;;6.07;;
8044;SDS011;4065;48.754;9.982;2023-04-03T07:16:35;10.02;;;7.55;;
8044;SDS011;4065;48.754;9.982;2023-04-03T07:19:59;8.82;;;7.18;;
8044;SDS011;4065;48.754;9.982;2023-04-03T07:23:25;7.25;;;6.55;;
8044;SDS011;4065;48.754;9.982;2023-04-03T07:26:50;8.38;;;7.00;;
8044;SDS011;4065;48.754;9.982;2023-04-03T07:30:18;7.93;;;6.40;;
8044;SDS011;4065;48.754;9.982;2023-04-03T07:33:42;9.07;;;5.90;;
8044;SDS011;4065;48.754;9.982;2023-04-03T07:37:07;7.72;;;6.28;;
8044;SDS011;4065;48.754;9.982;2023-04-03T07:40:35;7.07;;;6.47;;
8044;SDS011;4065;48.754;9.982;2023-04-03T07:44:01;6.30;;;5.80;;
8044;SDS011;4065;48.754;9.982;2023-04-03T07:47:27;7.95;;;7.18;;
8044;SDS011;4065;48.754;9.982;2023-04-03T07:50:52;7.78;;;7.00;;
8044;SDS011;4065;48.754;9.982;2023-04-03T07:54:21;7.78;;;6.55;;
8044;SDS011;4065;48.754;9.982;2023-04-03T07:58:06;10.82;;;7.35;;
8044;SDS011;4065;48.754;9.982;2023-04-03T08:01:40;8.18;;;6.88;;
8044;SDS011;4065;48.754;9.982;2023-04-03T08:05:29;8.07;;;7.25;;
8044;SDS011;4065;48.754;9.982;2023-04-03T08:09:15;8.85;;;7.03;;
8044;SDS011;4065;48.754;9.982;2023-04-03T08:12:54;8.32;;;7.40;;
8044;SDS011;4065;48.754;9.982;2023-04-03T08:16:36;7.10;;;6.50;;
8044;SDS011;4065;48.754;9.982;2023-04-03T08:20:06;7.95;;;6.97;;
8044;SDS011;4065;48.754;9.982;2023-04-03T08:23:36;8.23;;;7.47;;
8044;SDS011;4065;48.754;9.982;2023-04-03T08:27:15;8.57;;;6.72;;
8044;SDS011;4065;48.754;9.982;2023-04-03T08:30:45;8.82;;;7.40;;
8044;SDS011;4065;48.754;9.982;2023-04-03T08:34:22;7.80;;;7.03;;
8044;SDS011;4065;48.754;9.982;2023-04-03T08:37:48;7.63;;;6.70;;
8044;SDS011;4065;48.754;9.982;2023-04-03T08:41:31;9.70;;;6.63;;
8044;SDS011;4065;48.754;9.982;2023-04-03T08:44:58;7.25;;;6.57;;
8044;SDS011;4065;48.754;9.982;2023-04-03T08:48:42;6.75;;;6.05;;
8044;SDS011;4065;48.754;9.982;2023-04-03T08:52:10;6.45;;;5.90;;
8044;SDS011;4065;48.754;9.982;2023-04-03T08:55:37;6.95;;;6.07;;
8044;SDS011;4065;48.754;9.982;2023-04-03T08:59:17;7.03;;;5.90;;
8044;SDS011;4065;48.754;9.982;2023-04-03T09:02:54;7.40;;;6.70;;
8044;SDS011;4065;48.754;9.982;2023-04-03T09:06:22;6.22;;;5.63;;
8044;SDS011;4065;48.754;9.982;2023-04-03T09:09:50;6.60;;;6.00;;
8044;SDS011;4065;48.754;9.982;2023-04-03T09:13:19;6.82;;;6.20;;
8044;SDS011;4065;48.754;9.982;2023-04-03T09:16:52;7.10;;;5.50;;
8044;SDS011;4065;48.754;9.982;2023-04-03T09:20:23;6.20;;;5.60;;
8044;SDS011;4065;48.754;9.982;2023-04-03T09:23:58;6.45;;;5.95;;
8044;SDS011;4065;48.754;9.982;2023-04-03T09:27:27;6.38;;;5.78;;
8044;SDS011;4065;48.754;9.982;2023-04-03T09:30:55;8.63;;;5.78;;
8044;SDS011;4065;48.754;9.982;2023-04-03T09:34:29;6.80;;;5.60;;
8044;SDS011;4065;48.754;9.982;2023-04-03T09:37:59;5.95;;;5.30;;
8044;SDS011;4065;48.754;9.982;2023-04-03T09:41:40;5.57;;;5.07;;
8044;SDS011;4065;48.754;9.982;2023-04-03T09:45:18;6.45;;;5.80;;
8044;SDS011;4065;48.754;9.982;2023-04-03T09:48:51;5.63;;;4.75;;
8044;SDS011;4065;48.754;9.982;2023-04-03T09:52:25;5.75;;;5.15;;
8044;SDS011;4065;48.754;9.982;2023-04-03T09:55:50;5.35;;;4.85;;
8044;SDS011;4065;48.754;9.982;2023-04-03T09:59:23;5.45;;;5.03;;
8044;SDS011;4065;48.754;9.982;2023-04-03T10:03:27;5.32;;;4.85;;
8044;SDS011;4065;48.754;9.982;2023-04-03T10:11:11;6.43;;;4.95;;
8044;SDS011;4065;48.754;9.982;2023-04-03T10:14:54;6.03;;;4.90;;
8044;SDS011;4065;48.754;9.982;2023-04-03T10:18:32;9.15;;;7.10;;
8044;SDS011;4065;48.754;9.982;2023-04-03T10:22:16;5.63;;;5.00;;
8044;SDS011;4065;48.754;9.982;2023-04-03T10:25:50;5.03;;;4.63;;
8044;SDS011;4065;48.754;9.982;2023-04-03T10:29:29;11.88;;;4.63;;
8044;SDS011;4065;48.754;9.982;2023-04-03T10:33:17;5.97;;;4.80;;
8044;SDS011;4065;48.754;9.982;2023-04-03T10:37:17;7.47;;;6.00;;
8044;SDS011;4065;48.754;9.982;2023-04-03T10:41:20;4.60;;;3.80;;
8044;SDS011;4065;48.754;9.982;2023-04-03T10:45:14;5.05;;;4.50;;
8044;SDS011;4065;48.754;9.982;2023-04-03T10:48:56;4.65;;;4.25;;
8044;SDS011;4065;48.754;9.982;2023-04-03T10:52:46;6.68;;;5.30;;
8044;SDS011;4065;48.754;9.982;2023-04-03T11:00:33;5.57;;;5.10;;
8044;SDS011;4065;48.754;9.982;2023-04-03T11:04:22;6.72;;;5.40;;
8044;SDS011;4065;48.754;9.982;2023-04-03T11:07:54;5.13;;;4.70;;
8044;SDS011;4065;48.754;9.982;2023-04-03T11:11:31;5.32;;;4.78;;
8044;SDS011;4065;48.754;9.982;2023-04-03T11:15:27;5.68;;;5.18;;
8044;SDS011;4065;48.754;9.982;2023-04-03T11:19:14;6.82;;;4.60;;
8044;SDS011;4065;48.754;9.982;2023-04-03T11:23:15;5.93;;;5.22;;
8044;SDS011;4065;48.754;9.982;2023-04-03T11:26:51;6.82;;;4.80;;
8044;SDS011;4065;48.754;9.982;2023-04-03T11:30:26;7.03;;;5.45;;
8044;SDS011;4065;48.754;9.982;2023-04-03T11:34:02;7.90;;;5.88;;
8044;SDS011;4065;48.754;9.982;2023-04-03T11:37:51;7.47;;;5.40;;
8044;SDS011;4065;48.754;9.982;2023-04-03T11:41:28;6.22;;;5.28;;
8044;SDS011;4065;48.754;9.982;2023-04-03T11:48:55;5.13;;;4.53;;
8044;SDS011;4065;48.754;9.982;2023-04-03T11:56:28;5.45;;;4.75;;
8044;SDS011;4065;48.754;9.982;2023-04-03T11:59:54;7.40;;;4.70;;
8044;SDS011;4065;48.754;9.982;2023-04-03T12:07:29;6.05;;;5.45;;
8044;SDS011;4065;48.754;9.982;2023-04-03T12:14:39;7.35;;;4.85;;
8044;SDS011;4065;48.754;9.982;2023-04-03T12:22:16;5.40;;;4.90;;
8044;SDS011;4065;48.754;9.982;2023-04-03T12:25:48;5.32;;;4.82;;
8044;SDS011;4065;48.754;9.982;2023-04-03T12:29:17;6.22;;;5.10;;
8044;SDS011;4065;48.754;9.982;2023-04-03T12:32:54;7.35;;;5.38;;
8044;SDS011;4065;48.754;9.982;2023-04-03T12:36:29;5.85;;;4.88;;
8044;SDS011;4065;48.754;9.982;2023-04-03T12:40:08;5.50;;;4.85;;
8044;SDS011;4065;48.754;9.982;2023-04-03T12:43:42;5.28;;;4.78;;
8044;SDS011;4065;48.754;9.982;2023-04-03T12:47:22;7.80;;;4.82;;
8044;SDS011;4065;48.754;9.982;2023-04-03T12:50:54;6.68;;;4.70;;
8044;SDS011;4065;48.754;9.982;2023-04-03T12:54:22;5.13;;;4.15;;
8044;SDS011;4065;48.754;9.982;2023-04-03T12:57:51;25.00;;;10.70;;
8044;SDS011;4065;48.754;9.982;2023-04-03T13:01:20;23.40;;;10.55;;
8044;SDS011;4065;48.754;9.982;2023-04-03T13:04:46;23.40;;;9.98;;
8044;SDS011;4065;48.754;9.982;2023-04-03T13:08:12;5.90;;;4.43;;
8044;SDS011;4065;48.754;9.982;2023-04-03T13:11:41;5.85;;;5.18;;
8044;SDS011;4065;48.754;9.982;2023-04-03T13:15:16;5.90;;;5.10;;
8044;SDS011;4065;48.754;9.982;2023-04-03T13:18:44;6.13;;;5.53;;
8044;SDS011;4065;48.754;9.982;2023-04-03T13:22:23;5.68;;;5.10;;
8044;SDS011;4065;48.754;9.982;2023-04-03T13:25:52;7.25;;;5.72;;
8044;SDS011;4065;48.754;9.982;2023-04-03T13:29:23;7.50;;;6.05;;
8044;SDS011;4065;48.754;9.982;2023-04-03T13:32:53;5.35;;;4.85;;
8044;SDS011;4065;48.754;9.982;2023-04-03T13:36:24;5.53;;;4.88;;
8044;SDS011;4065;48.754;9.982;2023-04-03T13:40:10;5.22;;;4.82;;
8044;SDS011;4065;48.754;9.982;2023-04-03T13:43:36;5.97;;;5.38;;
8044;SDS011;4065;48.754;9.982;2023-04-03T13:47:14;5.53;;;5.00;;
8044;SDS011;4065;48.754;9.982;2023-04-03T13:50:57;5.75;;;5.25;;
8044;SDS011;4065;48.754;9.982;2023-04-03T13:54:28;6.10;;;5.28;;
8044;SDS011;4065;48.754;9.982;2023-04-03T13:57:57;5.57;;;5.03;;
8044;SDS011;4065;48.754;9.982;2023-04-03T14:01:38;7.82;;;5.78;;
8044;SDS011;4065;48.754;9.982;2023-04-03T14:05:11;6.05;;;5.03;;
8044;SDS011;4065;48.754;9.982;2023-04-03T14:08:44;5.88;;;5.38;;
8044;SDS011;4065;48.754;9.982;2023-04-03T14:12:25;4.93;;;4.50;;
8044;SDS011;4065;48.754;9.982;2023-04-03T14:16:03;5.35;;;4.75;;
8044;SDS011;4065;48.754;9.982;2023-04-03T14:19:29;5.05;;;4.32;;
8044;SDS011;4065;48.754;9.982;2023-04-03T14:22:56;5.30;;;4.38;;
8044;SDS011;4065;48.754;9.982;2023-04-03T14:26:24;5.07;;;4.57;;
8044;SDS011;4065;48.754;9.982;2023-04-03T14:29:53;7.28;;;4.95;;
8044;SDS011;4065;48.754;9.982;2023-04-03T14:33:31;5.22;;;4.35;;
8044;SDS011;4065;48.754;9.982;2023-04-03T14:37:02;5.78;;;4.70;;
8044;SDS011;4065;48.754;9.982;2023-04-03T14:40:39;10.07;;;6.20;;
8044;SDS011;4065;48.754;9.982;2023-04-03T14:44:11;10.85;;;6.93;;
8044;SDS011;4065;48.754;9.982;2023-04-03T14:47:40;11.00;;;7.40;;
8044;SDS011;4065;48.754;9.982;2023-04-03T14:51:09;13.18;;;7.53;;
8044;SDS011;4065;48.754;9.982;2023-04-03T14:54:35;5.88;;;4.38;;
8044;SDS011;4065;48.754;9.982;2023-04-03T14:58:01;6.63;;;4.80;;
8044;SDS011;4065;48.754;9.982;2023-04-03T15:01:28;8.27;;;5.72;;
8044;SDS011;4065;48.754;9.982;2023-04-03T15:04:53;4.65;;;3.85;;
8044;SDS011;4065;48.754;9.982;2023-04-03T15:08:19;5.85;;;4.20;;
8044;SDS011;4065;48.754;9.982;2023-04-03T15:11:45;4.95;;;4.50;;
8044;SDS011;4065;48.754;9.982;2023-04-03T15:15:09;5.30;;;4.13;;
8044;SDS011;4065;48.754;9.982;2023-04-03T15:18:37;7.68;;;5.40;;
8044;SDS011;4065;48.754;9.982;2023-04-03T15:22:03;9.25;;;6.35;;
8044;SDS011;4065;48.754;9.982;2023-04-03T15:25:28;8.13;;;5.85;;
8044;SDS011;4065;48.754;9.982;2023-04-03T15:28:54;5.57;;;5.07;;
8044;SDS011;4065;48.754;9.982;2023-04-03T15:32:19;8.95;;;6.95;;
8044;SDS011;4065;48.754;9.982;2023-04-03T15:35:45;8.02;;;6.57;;
8044;SDS011;4065;48.754;9.982;2023-04-03T15:39:13;6.30;;;5.70;;
8044;SDS011;4065;48.754;9.982;2023-04-03T15:42:37;6.22;;;5.63;;
8044;SDS011;4065;48.754;9.982;2023-04-03T15:46:02;6.90;;;4.68;;
8044;SDS011;4065;48.754;9.982;2023-04-03T15:49:28;5.63;;;4.78;;
8044;SDS011;4065;48.754;9.982;2023-04-03T15:52:56;7.25;;;5.53;;
8044;SDS011;4065;48.754;9.982;2023-04-03T15:56:23;4.90;;;4.40;;
8044;SDS011;4065;48.754;9.982;2023-04-03T15:59:47;5.28;;;4.53;;
8044;SDS011;4065;48.754;9.982;2023-04-03T16:03:15;8.50;;;5.50;;
8044;SDS011;4065;48.754;9.982;2023-04-03T16:06:43;8.50;;;5.20;;
8044;SDS011;4065;48.754;9.982;2023-04-03T16:10:30;5.65;;;5.10;;
8044;SDS011;4065;48.754;9.982;2023-04-03T16:13:54;7.40;;;4.88;;
8044;SDS011;4065;48.754;9.982;2023-04-03T16:17:21;10.57;;;5.82;;
8044;SDS011;4065;48.754;9.982;2023-04-03T16:20:45;6.03;;;5.18;;
8044;SDS011;4065;48.754;9.982;2023-04-03T16:24:10;5.05;;;4.55;;
8044;SDS011;4065;48.754;9.982;2023-04-03T16:27:40;6.13;;;5.53;;
8044;SDS011;4065;48.754;9.982;2023-04-03T16:31:05;5.13;;;4.70;;
8044;SDS011;4065;48.754;9.982;2023-04-03T16:34:34;5.30;;;4.78;;
8044;SDS011;4065;48.754;9.982;2023-04-03T16:38:07;6.75;;;5.50;;
8044;SDS011;4065;48.754;9.982;2023-04-03T16:41:33;6.38;;;5.68;;
8044;SDS011;4065;48.754;9.982;2023-04-03T16:45:01;7.78;;;5.03;;
8044;SDS011;4065;48.754;9.982;2023-04-03T16:48:28;7.03;;;5.40;;
8044;SDS011;4065;48.754;9.982;2023-04-03T16:52:00;6.88;;;5.03;;
8044;SDS011;4065;48.754;9.982;2023-04-03T16:55:25;8.75;;;5.68;;
8044;SDS011;4065;48.754;9.982;2023-04-03T16:58:56;11.23;;;8.00;;
8044;SDS011;4065;48.754;9.982;2023-04-03T17:02:25;10.25;;;5.15;;
8044;SDS011;4065;48.754;9.982;2023-04-03T17:05:51;6.18;;;5.57;;
8044;SDS011;4065;48.754;9.982;2023-04-03T17:09:18;7.70;;;5.85;;
8044;SDS011;4065;48.754;9.982;2023-04-03T17:12:44;6.75;;;5.80;;
8044;SDS011;4065;48.754;9.982;2023-04-03T17:16:12;10.23;;;6.60;;
8044;SDS011;4065;48.754;9.982;2023-04-03T17:19:50;5.90;;;5.18;;
8044;SDS011;4065;48.754;9.982;2023-04-03T17:23:19;5.88;;;5.30;;
8044;SDS011;4065;48.754;9.982;2023-04-03T17:26:44;7.13;;;5.28;;
8044;SDS011;4065;48.754;9.982;2023-04-03T17:30:12;6.95;;;6.07;;
8044;SDS011;4065;48.754;9.982;2023-04-03T17:33:42;7.13;;;6.43;;
8044;SDS011;4065;48.754;9.982;2023-04-03T17:37:07;6.65;;;6.05;;
8044;SDS011;4065;48.754;9.982;2023-04-03T17:40:33;6.20;;;5.65;;
8044;SDS011;4065;48.754;9.982;2023-04-03T17:43:59;6.78;;;6.00;;
8044;SDS011;4065;48.754;9.982;2023-04-03T17:47:40;6.90;;;5.80;;
8044;SDS011;4065;48.754;9.982;2023-04-03T17:51:28;7.45;;;6.10;;
8044;SDS011;4065;48.754;9.982;2023-04-03T17:55:10;5.85;;;5.20;;
8044;SDS011;4065;48.754;9.982;2023-04-03T17:58:35;7.25;;;5.38;;
8044;SDS011;4065;48.754;9.982;2023-04-03T18:02:01;6.28;;;5.63;;
8044;SDS011;4065;48.754;9.982;2023-04-03T18:05:32;6.80;;;5.60;;
8044;SDS011;4065;48.754;9.982;2023-04-03T18:08:54;7.28;;;6.45;;
8044;SDS011;4065;48.754;9.982;2023-04-03T18:12:21;8.48;;;6.20;;
8044;SDS011;4065;48.754;9.982;2023-04-03T18:15:43;7.22;;;5.82;;
8044;SDS011;4065;48.754;9.982;2023-04-03T18:19:06;9.20;;;4.93;;
8044;SDS011;4065;48.754;9.982;2023-04-03T18:22:28;7.85;;;5.50;;
8044;SDS011;4065;48.754;9.982;2023-04-03T18:25:51;5.93;;;5.43;;
8044;SDS011;4065;48.754;9.982;2023-04-03T18:29:14;9.25;;;8.30;;
8044;SDS011;4065;48.754;9.982;2023-04-03T18:32:36;6.82;;;6.22;;
8044;SDS011;4065;48.754;9.982;2023-04-03T18:35:58;7.18;;;5.95;;
8044;SDS011;4065;48.754;9.982;2023-04-03T18:39:22;6.57;;;5.80;;
8044;SDS011;4065;48.754;9.982;2023-04-03T18:42:44;11.43;;;6.88;;
8044;SDS011;4065;48.754;9.982;2023-04-03T18:46:07;6.35;;;5.75;;
8044;SDS011;4065;48.754;9.982;2023-04-03T18:49:33;6.70;;;5.68;;
8044;SDS011;4065;48.754;9.982;2023-04-03T18:52:57;8.45;;;6.13;;
8044;SDS011;4065;48.754;9.982;2023-04-03T18:56:19;7.32;;;6.50;;
8044;SDS011;4065;48.754;9.982;2023-04-03T18:59:41;13.70;;;8.48;;
8044;SDS011;4065;48.754;9.982;2023-04-03T19:03:05;8.50;;;5.90;;
8044;SDS011;4065;48.754;9.982;2023-04-03T19:06:27;7.43;;;5.97;;
8044;SDS011;4065;48.754;9.982;2023-04-03T19:09:49;6.50;;;5.75;;
8044;SDS011;4065;48.754;9.982;2023-04-03T19:13:11;6.50;;;5.57;;
8044;SDS011;4065;48.754;9.982;2023-04-03T19:16:33;5.13;;;4.72;;
8044;SDS011;4065;48.754;9.982;2023-04-03T19:19:58;6.68;;;6.07;;
8044;SDS011;4065;48.754;9.982;2023-04-03T19:23:20;6.35;;;5.68;;
8044;SDS011;4065;48.754;9.982;2023-04-03T19:26:42;5.93;;;5.25;;
8044;SDS011;4065;48.754;9.982;2023-04-03T19:30:06;7.25;;;6.43;;
8044;SDS011;4065;48.754;9.982;2023-04-03T19:33:29;10.93;;;6.93;;
8044;SDS011;4065;48.754;9.982;2023-04-03T19:36:53;5.93;;;5.38;;
8044;SDS011;4065;48.754;9.982;2023-04-03T19:40:17;15.20;;;5.85;;
8044;SDS011;4065;48.754;9.982;2023-04-03T19:43:39;6.00;;;4.88;;
8044;SDS011;4065;48.754;9.982;2023-04-03T19:47:02;6.43;;;5.82;;
8044;SDS011;4065;48.754;9.982;2023-04-03T19:50:25;7.40;;;5.78;;
8044;SDS011;4065;48.754;9.982;2023-04-03T19:53:51;5.65;;;5.15;;
8044;SDS011;4065;48.754;9.982;2023-04-03T19:57:21;8.43;;;4.97;;
8044;SDS011;4065;48.754;9.982;2023-04-03T20:00:43;7.80;;;5.25;;
8044;SDS011;4065;48.754;9.982;2023-04-03T20:04:08;6.53;;;5.55;;
8044;SDS011;4065;48.754;9.982;2023-04-03T20:07:30;5.82;;;5.18;;
8044;SDS011;4065;48.754;9.982;2023-04-03T20:10:55;6.32;;;5.47;;
8044;SDS011;4065;48.754;9.982;2023-04-03T20:14:17;6.22;;;5.72;;
8044;SDS011;4065;48.754;9.982;2023-04-03T20:17:39;5.38;;;4.85;;
8044;SDS011;4065;48.754;9.982;2023-04-03T20:21:03;5.68;;;5.10;;
8044;SDS011;4065;48.754;9.982;2023-04-03T20:24:26;5.10;;;4.50;;
8044;SDS011;4065;48.754;9.982;2023-04-03T20:27:50;7.22;;;4.90;;
8044;SDS011;4065;48.754;9.982;2023-04-03T20:31:14;8.18;;;5.53;;
8044;SDS011;4065;48.754;9.982;2023-04-03T20:34:36;5.75;;;5.07;;
8044;SDS011;4065;48.754;9.982;2023-04-03T20:37:59;9.73;;;5.90;;
8044;SDS011;4065;48.754;9.982;2023-04-03T20:41:21;8.32;;;6.43;;
8044;SDS011;4065;48.754;9.982;2023-04-03T20:44:44;8.38;;;5.28;;
8044;SDS011;4065;48.754;9.982;2023-04-03T20:48:06;5.85;;;5.25;;
8044;SDS011;4065;48.754;9.982;2023-04-03T20:51:28;7.78;;;5.93;;
8044;SDS011;4065;48.754;9.982;2023-04-03T20:54:51;7.25;;;4.97;;
8044;SDS011;4065;48.754;9.982;2023-04-03T20:58:12;9.05;;;5.40;;
8044;SDS011;4065;48.754;9.982;2023-04-03T21:01:38;6.25;;;5.53;;
8044;SDS011;4065;48.754;9.982;2023-04-03T21:05:00;7.32;;;5.70;;
8044;SDS011;4065;48.754;9.982;2023-04-03T21:19:45;7.35;;;5.35;;
8044;SDS011;4065;48.754;9.982;2023-04-03T21:23:08;9.43;;;5.82;;
8044;SDS011;4065;48.754;9.982;2023-04-03T21:26:30;9.65;;;6.70;;
8044;SDS011;4065;48.754;9.982;2023-04-03T21:29:52;5.85;;;5.22;;
8044;SDS011;4065;48.754;9.982;2023-04-03T21:33:14;8.70;;;6.45;;
8044;SDS011;4065;48.754;9.982;2023-04-03T21:36:39;8.18;;;6.72;;
8044;SDS011;4065;48.754;9.982;2023-04-03T21:40:02;7.60;;;6.57;;
8044;SDS011;4065;48.754;9.982;2023-04-03T21:43:24;12.55;;;7.85;;
8044;SDS011;4065;48.754;9.982;2023-04-03T21:46:46;6.43;;;5.82;;
8044;SDS011;4065;48.754;9.982;2023-04-03T21:50:09;6.22;;;5.63;;
8044;SDS011;4065;48.754;9.982;2023-04-03T21:53:33;6.30;;;5.68;;
8044;SDS011;4065;48.754;9.982;2023-04-03T21:56:55;10.00;;;6.20;;
8044;SDS011;4065;48.754;9.982;2023-04-03T22:00:18;9.65;;;6.30;;
8044;SDS011;4065;48.754;9.982;2023-04-03T22:03:41;9.13;;;6.00;;
8044;SDS011;4065;48.754;9.982;2023-04-03T22:07:03;8.98;;;6.10;;
8044;SDS011;4065;48.754;9.982;2023-04-03T22:10:27;5.72;;;5.20;;